Time;durP1;ratioP1;P1;durP2;ratioP2;P2;SDS_P1;SDS_P2;PMS_P1;PMS_P2;Temp;Humidity;BMP_temperature;BMP_pressure;BME280_temperature;BME280_humidity;BME280_pressure;Samples;Min_cycle;Max_cycle;Signal;HPM_P1;HPM_P2
2022/06/02 00:01:45;;;;;;;14.03;10.30;;;10.80;99.90;;;;;;10093583;29;20284;-79
2022/06/02 00:07:01;;;;;;;13.13;10.20;;;10.90;99.90;;;;;;10080398;29;20256;-78
2022/06/02 00:12:24;;;;;;;16.47;10.33;;;11.00;99.90;;;;;;10055374;29;20299;-78
2022/06/02 00:17:55;;;;;;;11.00;9.90;;;11.10;99.90;;;;;;10095059;29;20242;-79
2022/06/02 00:23:29;;;;;;;11.20;8.90;;;11.10;99.90;;;;;;10090262;29;20319;-79
2022/06/02 00:28:45;;;;;;;9.53;7.80;;;11.30;99.90;;;;;;10064976;29;20244;-79
2022/06/02 00:34:02;;;;;;;6.80;6.10;;;11.20;99.90;;;;;;10089484;29;20282;-79
2022/06/02 00:39:08;;;;;;;6.03;4.93;;;11.20;99.90;;;;;;10081677;29;20256;-79
2022/06/02 00:44:31;;;;;;;6.00;5.10;;;11.40;99.90;;;;;;10093217;29;20248;-79
2022/06/02 00:49:54;;;;;;;5.87;5.33;;;11.30;99.90;;;;;;10091838;29;20516;-78
2022/06/02 01:01:08;;;;;;;5.27;4.77;;;11.20;99.90;;;;;;10047959;29;20315;-78
2022/06/02 01:06:23;;;;;;;8.03;5.30;;;11.30;99.90;;;;;;10026290;29;20249;-79
2022/06/02 01:12:06;;;;;;;4.77;4.33;;;11.10;99.90;;;;;;9996338;29;20265;-79
2022/06/02 01:17:39;;;;;;;11.63;5.73;;;10.90;99.90;;;;;;9983914;29;20299;-79
2022/06/02 01:23:09;;;;;;;5.50;4.80;;;10.70;99.90;;;;;;9972968;29;20377;-79
2022/06/02 01:28:31;;;;;;;7.87;5.27;;;10.60;99.90;;;;;;9989307;29;20297;-79
2022/06/02 01:33:52;;;;;;;8.63;5.83;;;10.40;99.90;;;;;;9970421;29;20265;-79
2022/06/02 01:39:18;;;;;;;8.20;5.60;;;10.00;99.90;;;;;;9972649;29;20721;-79
2022/06/02 01:44:55;;;;;;;6.00;5.40;;;9.80;99.90;;;;;;9973237;29;20402;-79
2022/06/02 01:50:19;;;;;;;8.23;5.20;;;9.60;99.90;;;;;;10021325;29;20273;-79
2022/06/02 01:55:21;;;;;;;6.30;5.70;;;9.30;99.90;;;;;;10089338;29;20662;-79
2022/06/02 02:00:29;;;;;;;8.17;5.83;;;9.00;99.90;;;;;;10092076;29;20246;-79
2022/06/02 02:05:52;;;;;;;6.60;5.90;;;9.00;99.90;;;;;;10053594;29;20242;-79
2022/06/02 02:11:21;;;;;;;6.07;5.47;;;8.80;99.90;;;;;;10058497;29;20317;-79
2022/06/02 02:16:51;;;;;;;9.57;6.43;;;8.70;99.90;;;;;;10089937;29;20236;-78
2022/06/02 02:22:28;;;;;;;15.73;7.70;;;8.60;99.90;;;;;;10088728;29;20238;-79
2022/06/02 02:28:05;;;;;;;8.43;6.43;;;8.60;99.90;;;;;;10089797;29;20265;-79
2022/06/02 02:33:19;;;;;;;6.37;5.60;;;8.60;99.90;;;;;;10091336;29;20707;-79
2022/06/02 02:38:30;;;;;;;8.17;5.90;;;8.70;99.90;;;;;;10062360;29;20702;-78
2022/06/02 02:43:39;;;;;;;10.97;6.97;;;8.60;99.90;;;;;;10065781;29;20290;-79
2022/06/02 02:49:00;;;;;;;7.83;6.63;;;8.70;99.90;;;;;;10088434;29;20273;-79
2022/06/02 02:54:05;;;;;;;9.23;6.30;;;8.90;99.90;;;;;;10052505;29;20286;-79
2022/06/02 02:59:31;;;;;;;7.70;7.00;;;8.80;99.90;;;;;;10056919;29;20596;-79
2022/06/02 03:04:55;;;;;;;7.60;6.90;;;9.00;99.90;;;;;;10089403;29;20237;-79
2022/06/02 03:10:09;;;;;;;7.50;6.80;;;9.10;99.90;;;;;;10096612;29;20245;-79
2022/06/02 03:15:37;;;;;;;7.43;6.17;;;9.30;99.90;;;;;;10110371;29;20293;-79
2022/06/02 03:21:06;;;;;;;11.83;7.90;;;9.30;99.90;;;;;;10094955;29;20240;-78
2022/06/02 03:26:31;;;;;;;10.70;9.07;;;9.70;99.90;;;;;;10096182;29;20360;-79
2022/06/02 03:32:17;;;;;;;14.03;9.53;;;10.00;99.90;;;;;;10076535;29;20258;-78
2022/06/02 03:37:31;;;;;;;9.50;8.50;;;10.20;99.90;;;;;;10072223;29;20251;-79
2022/06/02 03:42:37;;;;;;;12.40;9.80;;;10.20;99.90;;;;;;10071723;29;20596;-79
2022/06/02 03:48:07;;;;;;;11.80;9.87;;;10.30;99.90;;;;;;10081137;29;20240;-78
2022/06/02 03:53:29;;;;;;;11.17;9.70;;;10.30;99.90;;;;;;10056226;29;20310;-78
2022/06/02 03:58:56;;;;;;;12.47;9.23;;;10.30;99.90;;;;;;10056427;29;20236;-79
2022/06/02 04:04:08;;;;;;;9.47;8.47;;;10.50;99.90;;;;;;10085987;29;20236;-78
2022/06/02 04:09:54;;;;;;;11.63;8.40;;;10.70;99.90;;;;;;10094055;29;20599;-79
2022/06/02 04:15:21;;;;;;;12.57;9.00;;;10.80;99.90;;;;;;10092252;29;20264;-78
2022/06/02 04:20:44;;;;;;;10.83;9.70;;;10.80;99.90;;;;;;10091642;29;20383;-78
2022/06/02 04:26:17;;;;;;;8.63;7.83;;;10.90;99.90;;;;;;10070411;29;20266;-78
2022/06/02 04:31:51;;;;;;;8.90;7.47;;;12.00;99.90;;;;;;10069664;29;20265;-78
2022/06/02 04:37:02;;;;;;;15.37;12.37;;;12.10;99.90;;;;;;10081464;29;20690;-79
2022/06/02 04:43:02;;;;;;;12.10;10.43;;;11.70;99.90;;;;;;10082782;29;20233;-78
2022/06/02 04:48:30;;;;;;;10.97;9.63;;;11.70;99.90;;;;;;9993580;29;20291;-78
2022/06/02 04:53:46;;;;;;;12.37;10.73;;;11.80;99.90;;;;;;9996638;29;20317;-79
2022/06/02 04:59:10;;;;;;;8.60;7.70;;;12.50;99.90;;;;;;10011235;29;20313;-79
2022/06/02 05:04:30;;;;;;;8.40;7.63;;;13.10;99.90;;;;;;10009821;29;20424;-78
2022/06/02 05:09:52;;;;;;;9.47;7.47;;;12.90;99.90;;;;;;10011476;29;20259;-79
2022/06/02 05:15:19;;;;;;;11.33;8.33;;;14.10;99.90;;;;;;10011053;29;20234;-79
2022/06/02 05:20:36;;;;;;;9.20;8.40;;;13.10;99.90;;;;;;10049485;29;20256;-79
2022/06/02 05:26:12;;;;;;;10.30;7.53;;;13.00;99.90;;;;;;10059004;29;20227;-78
2022/06/02 05:31:43;;;;;;;8.30;7.50;;;13.60;99.90;;;;;;10092059;29;20249;-79
2022/06/02 05:37:04;;;;;;;6.43;5.83;;;12.70;99.90;;;;;;10090603;29;20639;-78
2022/06/02 05:42:25;;;;;;;8.07;7.37;;;14.70;99.90;;;;;;10068024;29;20248;-79
2022/06/02 05:47:51;;;;;;;8.60;7.57;;;14.30;99.90;;;;;;10071561;29;20654;-79
2022/06/02 05:53:03;;;;;;;9.57;8.67;;;14.00;99.90;;;;;;10089797;29;20260;-79
2022/06/02 05:58:09;;;;;;;8.40;7.53;;;14.20;99.90;;;;;;10089047;29;20668;-79
2022/06/02 06:04:05;;;;;;;8.30;7.40;;;15.70;99.90;;;;;;10088257;29;20292;-79
2022/06/02 06:09:16;;;;;;;7.13;6.53;;;15.40;99.90;;;;;;10080563;29;20252;-79
2022/06/02 06:14:27;;;;;;;8.00;7.20;;;14.50;99.90;;;;;;10057600;29;20362;-78
2022/06/02 06:19:40;;;;;;;7.33;6.73;;;14.00;99.90;;;;;;10046622;29;20453;-78
2022/06/02 06:24:54;;;;;;;7.77;7.10;;;15.30;99.90;;;;;;10047270;29;20334;-78
2022/06/02 06:30:35;;;;;;;7.90;7.17;;;16.00;99.90;;;;;;10047159;29;20286;-76
2022/06/02 06:36:13;;;;;;;7.83;7.13;;;16.20;99.90;;;;;;10058193;29;20281;-77
2022/06/02 06:41:22;;;;;;;9.70;7.73;;;14.90;99.90;;;;;;10081941;29;20694;-77
2022/06/02 06:46:48;;;;;;;7.03;6.43;;;;;;;;;;10096207;29;20656;-76
2022/06/02 06:52:18;;;;;;;8.03;5.33;;;16.80;99.90;;;;;;10094124;29;20276;-76
2022/06/02 06:57:40;;;;;;;8.37;5.60;;;17.10;99.90;;;;;;10098179;29;20616;-76
2022/06/02 07:03:04;;;;;;;10.50;6.00;;;16.00;99.90;;;;;;10097258;29;20731;-76
2022/06/02 07:08:36;;;;;;;6.93;5.63;;;16.80;99.90;;;;;;10110843;29;20275;-78
2022/06/02 07:13:53;;;;;;;6.30;5.20;;;17.60;99.90;;;;;;10096431;29;20256;-77
2022/06/02 07:19:07;;;;;;;5.90;5.50;;;15.80;99.90;;;;;;10088451;29;20235;-79
2022/06/02 07:24:32;;;;;;;5.70;5.20;;;16.80;99.90;;;;;;10086402;29;20302;-83
2022/06/02 07:29:47;;;;;;;6.67;4.90;;;16.80;99.90;;;;;;10087649;29;20246;-80
2022/06/02 07:35:47;;;;;;;7.03;5.70;;;17.70;99.90;;;;;;10091768;29;20749;-81
2022/06/02 07:41:22;;;;;;;6.37;5.77;;;16.20;99.90;;;;;;9992091;29;20327;-82
2022/06/02 07:46:55;;;;;;;7.17;6.50;;;16.30;99.90;;;;;;9987690;29;20716;-80
2022/06/02 07:52:05;;;;;;;5.80;5.30;;;16.50;99.90;;;;;;9986692;29;20389;-79
2022/06/02 07:57:18;;;;;;;4.87;4.47;;;16.60;99.90;;;;;;9993361;29;20285;-81
2022/06/02 08:02:49;;;;;;;6.67;6.10;;;16.60;99.90;;;;;;9959868;29;20247;-80
2022/06/02 08:07:59;;;;;;;6.63;5.50;;;17.10;99.90;;;;;;9983500;29;20288;-79
2022/06/02 08:13:29;;;;;;;6.70;6.10;;;17.20;99.90;;;;;;10009721;29;20332;-78
2022/06/02 08:18:47;;;;;;;6.00;5.50;;;17.90;99.90;;;;;;10090013;29;20230;-80
2022/06/02 08:24:12;;;;;;;7.13;5.37;;;18.10;99.90;;;;;;10091640;29;20229;-79
2022/06/02 08:29:33;;;;;;;6.57;6.07;;;18.10;99.90;;;;;;10089114;29;20242;-81
2022/06/02 08:35:04;;;;;;;5.93;5.47;;;17.70;99.90;;;;;;10085786;29;20262;-80
2022/06/02 08:40:32;;;;;;;5.60;5.20;;;18.80;99.90;;;;;;10086591;29;20289;-80
2022/06/02 08:45:58;;;;;;;4.40;4.00;;;18.80;99.90;;;;;;10086492;29;20643;-79
2022/06/02 08:51:26;;;;;;;5.20;4.80;;;17.50;99.90;;;;;;10077497;29;20325;-79
2022/06/02 08:57:01;;;;;;;5.83;5.33;;;17.80;99.90;;;;;;10080605;29;20292;-79
2022/06/02 09:02:37;;;;;;;6.80;5.17;;;18.30;99.90;;;;;;10089259;29;20234;-80
2022/06/02 09:08:00;;;;;;;6.10;5.63;;;18.80;99.90;;;;;;10082906;29;20239;-79
2022/06/02 09:13:42;;;;;;;6.60;5.90;;;18.70;99.90;;;;;;10084450;29;20296;-80
2022/06/02 09:19:17;;;;;;;4.27;3.97;;;19.10;99.90;;;;;;10083886;29;20660;-79
2022/06/02 09:24:27;;;;;;;6.30;5.80;;;18.80;98.80;;;;;;10086970;29;20277;-80
2022/06/02 09:29:45;;;;;;;3.93;3.63;;;18.90;99.90;;;;;;10069548;29;20715;-80
2022/06/02 09:35:07;;;;;;;6.40;5.90;;;18.40;99.90;;;;;;10087676;29;20315;-79
2022/06/02 09:40:44;;;;;;;6.57;6.07;;;18.80;99.90;;;;;;10084306;29;20676;-79
2022/06/02 09:46:23;;;;;;;5.07;4.07;;;19.10;99.90;;;;;;10083418;29;20242;-79
2022/06/02 09:51:55;;;;;;;3.77;3.53;;;18.10;99.90;;;;;;10083054;29;20330;-81
2022/06/02 10:03:26;;;;;;;3.60;2.40;;;18.10;99.90;;;;;;10080663;29;20247;-79
2022/06/02 10:08:49;;;;;;;4.30;4.00;;;17.40;97.90;;;;;;10084742;29;20232;-79
2022/06/02 10:14:03;;;;;;;6.60;6.10;;;18.20;99.90;;;;;;10085696;29;20329;-79
2022/06/02 10:19:24;;;;;;;6.97;6.43;;;18.60;99.90;;;;;;10101833;29;20293;-80
2022/06/02 10:24:51;;;;;;;3.50;3.20;;;18.50;99.90;;;;;;10084781;29;20236;-79
2022/06/02 10:30:08;;;;;;;8.37;7.67;;;19.20;97.00;;;;;;10086284;29;20272;-77
2022/06/02 10:35:14;;;;;;;6.63;6.13;;;19.20;99.90;;;;;;10066129;29;20733;-78
2022/06/02 10:40:38;;;;;;;7.93;7.27;;;18.90;99.90;;;;;;10066464;29;20252;-78
2022/06/02 10:46:11;;;;;;;2.47;2.27;;;18.80;99.90;;;;;;10067075;29;20240;-78
2022/06/02 10:51:51;;;;;;;6.33;5.83;;;18.30;98.30;;;;;;10055021;29;20715;-77
2022/06/02 10:57:14;;;;;;;5.73;4.77;;;18.60;96.90;;;;;;10088116;29;20700;-79
2022/06/02 11:02:54;;;;;;;3.33;2.03;;;18.90;98.50;;;;;;10082161;29;20297;-79
2022/06/02 11:08:43;;;;;;;3.47;3.17;;;18.50;93.90;;;;;;10106230;29;20732;-79
2022/06/02 11:14:18;;;;;;;2.53;2.20;;;19.10;93.10;;;;;;10085269;29;20767;-78
2022/06/02 11:19:33;;;;;;;6.30;5.70;;;18.60;93.50;;;;;;10086359;29;20270;-78
2022/06/02 11:25:00;;;;;;;2.03;1.83;;;18.70;98.70;;;;;;10081104;29;20243;-79
2022/06/02 11:30:20;;;;;;;4.37;1.40;;;18.00;95.50;;;;;;10092839;29;20250;-79
2022/06/02 11:35:55;;;;;;;2.67;2.07;;;18.30;94.50;;;;;;10095447;29;20317;-79
2022/06/02 11:41:22;;;;;;;3.13;2.57;;;18.90;93.80;;;;;;10092505;29;20280;-79
2022/06/02 11:46:35;;;;;;;3.67;3.13;;;18.90;92.80;;;;;;10095064;29;20269;-79
2022/06/02 11:52:16;;;;;;;6.20;5.80;;;18.40;92.40;;;;;;10094477;29;20303;-79
2022/06/02 11:57:48;;;;;;;2.50;2.30;;;18.50;98.30;;;;;;10105063;29;20763;-79
2022/06/02 12:03:15;;;;;;;5.80;5.40;;;18.90;93.90;;;;;;10094223;29;20272;-79
2022/06/02 12:09:07;;;;;;;4.13;3.83;;;19.40;93.80;;;;;;10094140;29;20233;-79
2022/06/02 12:14:47;;;;;;;3.00;2.80;;;19.30;91.10;;;;;;10033230;29;20250;-79
2022/06/02 12:20:21;;;;;;;2.80;2.60;;;18.70;90.70;;;;;;10018860;29;20239;-78
2022/06/02 12:25:49;;;;;;;6.10;2.60;;;18.60;96.50;;;;;;10031699;29;20244;-78
2022/06/02 12:31:35;;;;;;;5.10;2.47;;;19.10;94.80;;;;;;10032449;29;20250;-78
2022/06/02 12:37:32;;;;;;;2.40;2.20;;;18.90;92.10;;;;;;10032024;29;20253;-79
2022/06/02 12:42:59;;;;;;;2.20;2.00;;;18.90;95.20;;;;;;10044440;29;20312;-78
2022/06/02 12:48:14;;;;;;;4.47;4.13;;;19.30;92.20;;;;;;10088922;29;20267;-78
2022/06/02 12:53:30;;;;;;;5.73;5.30;;;19.60;93.00;;;;;;10111615;29;20320;-78
2022/06/02 12:58:54;;;;;;;5.30;4.80;;;19.60;86.00;;;;;;10090918;29;20240;-79
2022/06/02 13:04:15;;;;;;;7.30;6.70;;;19.50;94.40;;;;;;10085787;29;20248;-79
2022/06/02 13:09:46;;;;;;;2.47;1.53;;;19.50;94.30;;;;;;10083112;29;20593;-79
2022/06/02 13:14:52;;;;;;;8.37;7.13;;;19.20;88.60;;;;;;10087026;29;20269;-79
2022/06/02 13:20:02;;;;;;;7.70;6.90;;;19.50;93.20;;;;;;10083114;29;20299;-79
2022/06/02 13:25:53;;;;;;;5.27;4.77;;;19.60;93.80;;;;;;10088258;29;20300;-79
2022/06/02 13:31:21;;;;;;;2.83;1.87;;;19.10;87.20;;;;;;10069071;29;20286;-78
2022/06/02 13:36:54;;;;;;;7.87;7.17;;;19.00;90.50;;;;;;10068162;29;20260;-79
2022/06/02 13:42:02;;;;;;;2.43;2.23;;;19.20;93.30;;;;;;10082932;29;20232;-78
2022/06/02 13:47:49;;;;;;;8.10;7.40;;;19.10;90.00;;;;;;10082011;29;20384;-79
2022/06/02 13:53:22;;;;;;;5.13;4.73;;;18.90;91.80;;;;;;10050473;29;20361;-78
2022/06/02 13:58:48;;;;;;;8.17;7.47;;;18.70;94.10;;;;;;10082417;29;20241;-79
2022/06/02 14:04:28;;;;;;;4.80;4.07;;;19.10;94.60;;;;;;10082352;29;20277;-77
2022/06/02 14:09:44;;;;;;;8.27;7.67;;;19.40;93.50;;;;;;10053284;29;20249;-78
2022/06/02 14:14:55;;;;;;;6.43;5.93;;;19.60;91.10;;;;;;10075383;29;20288;-79
2022/06/02 14:20:21;;;;;;;6.87;2.30;;;19.60;91.10;;;;;;10085944;29;20245;-79
2022/06/02 14:26:01;;;;;;;2.00;1.67;;;19.70;84.70;;;;;;10091051;29;20324;-79
2022/06/02 14:31:07;;;;;;;2.53;1.87;;;19.80;83.90;;;;;;10090434;29;20895;-79
2022/06/02 14:36:19;;;;;;;2.10;2.00;;;19.50;83.80;;;;;;10063195;29;20316;-79
2022/06/02 14:42:03;;;;;;;3.57;2.07;;;19.40;84.70;;;;;;10066747;29;20228;-79
2022/06/02 14:47:12;;;;;;;3.70;3.47;;;19.40;86.10;;;;;;10052949;29;20217;-79
2022/06/02 14:52:33;;;;;;;2.53;2.33;;;19.60;85.90;;;;;;10077849;29;20260;-79
2022/06/02 14:57:52;;;;;;;2.43;2.23;;;19.50;83.20;;;;;;10105059;29;20604;-79
2022/06/02 15:03:26;;;;;;;3.13;2.70;;;18.80;85.60;;;;;;10094079;29;20947;-79
2022/06/02 15:09:01;;;;;;;8.73;3.07;;;18.70;85.60;;;;;;10059946;29;20301;-79
2022/06/02 15:14:29;;;;;;;3.13;2.50;;;18.80;89.30;;;;;;10059993;29;20312;-79
2022/06/02 15:19:50;;;;;;;4.00;3.70;;;19.20;90.20;;;;;;10059835;29;20637;-79
2022/06/02 15:25:36;;;;;;;3.77;3.47;;;19.30;85.30;;;;;;10058655;29;20763;-80
2022/06/02 15:30:57;;;;;;;5.17;4.77;;;19.20;90.20;;;;;;10065232;29;20237;-80
2022/06/02 15:36:24;;;;;;;2.10;1.90;;;19.40;90.40;;;;;;10093884;29;20296;-79
2022/06/02 15:41:26;;;;;;;2.03;1.80;;;19.10;84.50;;;;;;10111970;29;20205;-79
2022/06/02 15:46:47;;;;;;;2.40;2.20;;;19.10;86.20;;;;;;10097147;29;20285;-79
2022/06/02 15:52:18;;;;;;;2.53;2.33;;;19.20;85.00;;;;;;10095911;29;20260;-80
2022/06/02 15:57:47;;;;;;;2.13;1.87;;;19.20;81.00;;;;;;10072445;29;20272;-79
2022/06/02 16:03:22;;;;;;;2.23;2.10;;;19.00;85.60;;;;;;10070702;29;20289;-80
2022/06/02 16:08:52;;;;;;;2.80;2.60;;;18.60;88.70;;;;;;10082971;29;20281;-80
2022/06/02 16:14:20;;;;;;;2.50;2.30;;;19.10;88.90;;;;;;10093467;29;20293;-79
2022/06/02 16:19:42;;;;;;;3.20;2.90;;;18.70;89.20;;;;;;10096575;29;20235;-80
2022/06/02 16:25:10;;;;;;;3.40;3.10;;;18.70;91.00;;;;;;10083795;29;20245;-80
2022/06/02 16:30:23;;;;;;;2.73;2.53;;;18.90;90.80;;;;;;10070456;29;20245;-79
2022/06/02 16:35:58;;;;;;;4.30;3.57;;;18.30;91.40;;;;;;10091185;29;20257;-78
2022/06/02 16:41:16;;;;;;;3.77;2.17;;;18.20;90.60;;;;;;9755707;29;10000433;-79
2022/06/02 16:46:36;;;;;;;2.60;2.23;;;17.70;90.70;;;;;;10077789;29;20292;-80
2022/06/02 16:52:10;;;;;;;2.97;2.20;;;17.70;91.90;;;;;;10091646;29;20671;-79
2022/06/02 16:57:35;;;;;;;2.97;2.67;;;17.70;90.90;;;;;;10087821;29;20313;-79
2022/06/02 17:03:19;;;;;;;7.57;3.40;;;17.90;91.20;;;;;;10076599;29;20236;-79
2022/06/02 17:08:40;;;;;;;6.07;5.10;;;17.80;91.90;;;;;;10098862;29;20247;-79
2022/06/02 17:14:02;;;;;;;2.83;2.60;;;18.50;92.40;;;;;;10088065;29;20279;-79
2022/06/02 17:19:48;;;;;;;2.53;2.33;;;18.80;89.40;;;;;;10089013;29;20235;-78
2022/06/02 17:25:03;;;;;;;3.17;2.30;;;18.90;90.60;;;;;;10066434;29;20248;-79
2022/06/02 17:30:35;;;;;;;5.93;2.27;;;18.50;87.80;;;;;;10089569;29;20240;-79
2022/06/02 17:35:47;;;;;;;2.60;2.40;;;18.30;87.70;;;;;;10100651;29;20678;-80
2022/06/02 17:41:27;;;;;;;3.47;2.43;;;18.20;89.60;;;;;;10071353;29;20274;-79
2022/06/02 17:46:52;;;;;;;2.43;2.23;;;17.90;91.00;;;;;;10083025;29;20237;-80
2022/06/02 17:52:10;;;;;;;4.17;2.83;;;17.80;90.60;;;;;;10085747;29;20665;-80
2022/06/02 17:57:31;;;;;;;3.40;3.10;;;17.80;90.80;;;;;;10077772;29;20256;-79
2022/06/02 18:02:42;;;;;;;3.27;2.97;;;17.60;92.20;;;;;;10053354;29;20232;-78
2022/06/02 18:07:45;;;;;;;5.73;2.57;;;17.30;92.30;;;;;;10059466;29;20292;-78
2022/06/02 18:13:09;;;;;;;3.13;2.80;;;17.00;93.50;;;;;;10085744;29;20242;-79
2022/06/02 18:18:20;;;;;;;4.50;3.30;;;16.70;94.00;;;;;;10089797;29;20232;-79
2022/06/02 18:23:34;;;;;;;4.13;3.27;;;16.50;95.10;;;;;;10087519;29;20747;-79
2022/06/02 18:29:09;;;;;;;5.03;3.87;;;16.20;97.80;;;;;;10073453;29;20659;-79
2022/06/02 18:34:29;;;;;;;4.20;3.80;;;15.70;99.90;;;;;;10091476;29;20991;-79
2022/06/02 18:39:55;;;;;;;10.97;3.67;;;15.30;99.90;;;;;;10094449;29;20271;-78
2022/06/02 18:45:10;;;;;;;4.93;3.50;;;14.90;99.90;;;;;;10096806;29;20225;-79
2022/06/02 18:50:37;;;;;;;3.50;3.20;;;14.50;99.90;;;;;;10089159;29;20259;-79
2022/06/02 18:56:04;;;;;;;4.17;3.53;;;14.00;99.90;;;;;;10094767;29;20282;-79
2022/06/02 19:01:18;;;;;;;10.83;3.80;;;13.60;99.90;;;;;;10086390;29;20233;-81
2022/06/02 19:18:08;;;;;;;5.07;3.30;;;12.70;99.90;;;;;;10101664;29;20260;-80
2022/06/02 19:23:32;;;;;;;4.73;3.97;;;12.40;99.90;;;;;;10095345;29;20292;-80
2022/06/02 19:29:04;;;;;;;11.07;3.63;;;12.20;99.90;;;;;;10094629;29;20636;-79
2022/06/02 19:34:17;;;;;;;7.23;3.63;;;11.80;99.90;;;;;;10074828;29;20294;-78
2022/06/02 19:39:23;;;;;;;10.80;3.90;;;11.80;99.90;;;;;;10090167;29;20702;-80
2022/06/02 19:44:43;;;;;;;4.07;3.47;;;11.70;99.90;;;;;;10093595;29;20641;-78
2022/06/02 19:50:04;;;;;;;5.00;4.50;;;11.50;99.90;;;;;;10094310;29;20297;-79
2022/06/02 19:55:32;;;;;;;5.87;4.47;;;11.40;99.90;;;;;;10095922;29;20327;-78
2022/06/02 20:00:47;;;;;;;12.67;4.80;;;11.20;99.90;;;;;;10084521;29;20682;-79
2022/06/02 20:05:56;;;;;;;9.13;4.57;;;11.00;99.90;;;;;;10093273;29;20304;-79
2022/06/02 20:11:14;;;;;;;7.70;4.63;;;11.00;99.90;;;;;;10079974;29;20241;-78
2022/06/02 20:16:46;;;;;;;6.93;3.83;;;10.80;99.90;;;;;;10079498;29;20260;-82
2022/06/02 20:22:10;;;;;;;7.57;5.50;;;10.50;99.90;;;;;;10092015;29;20705;-80
2022/06/02 20:27:36;;;;;;;7.43;4.73;;;10.40;99.90;;;;;;10073254;29;20694;-78
2022/06/02 20:33:00;;;;;;;7.00;5.07;;;10.30;99.90;;;;;;10060862;29;20299;-79
2022/06/02 20:38:11;;;;;;;5.80;5.20;;;10.10;99.90;;;;;;10092469;29;20259;-80
2022/06/02 20:43:42;;;;;;;7.47;5.90;;;10.00;99.90;;;;;;10099706;29;20672;-79
2022/06/02 20:49:10;;;;;;;9.33;7.07;;;9.90;99.90;;;;;;10108313;29;20829;-79
2022/06/02 20:54:31;;;;;;;8.63;5.90;;;9.70;99.90;;;;;;10091803;29;20261;-79
2022/06/02 21:00:15;;;;;;;7.30;5.60;;;9.70;99.90;;;;;;10082842;29;20230;-78
2022/06/02 21:05:45;;;;;;;22.60;7.20;;;9.60;99.90;;;;;;9731091;29;10000858;-79
2022/06/02 21:10:58;;;;;;;6.63;5.73;;;9.50;99.90;;;;;;10089545;29;20726;-79
2022/06/02 21:16:23;;;;;;;13.40;7.83;;;9.50;99.90;;;;;;10090712;29;20330;-79
2022/06/02 21:21:58;;;;;;;11.33;6.97;;;9.30;99.90;;;;;;10098320;29;20293;-79
2022/06/02 21:27:10;;;;;;;17.27;8.73;;;9.20;99.90;;;;;;10089974;29;20650;-79
2022/06/02 21:33:02;;;;;;;12.03;8.47;;;9.10;99.90;;;;;;10104912;29;20279;-79
2022/06/02 21:38:14;;;;;;;15.53;8.60;;;9.00;99.90;;;;;;10083296;29;20369;-79
2022/06/02 21:43:43;;;;;;;10.90;8.43;;;8.90;99.90;;;;;;10094039;29;20253;-78
2022/06/02 21:49:01;;;;;;;11.57;8.43;;;8.90;99.90;;;;;;10062389;29;20472;-79
2022/06/02 21:54:26;;;;;;;10.03;8.50;;;8.80;99.90;;;;;;10095870;29;20346;-79
2022/06/02 22:00:16;;;;;;;10.60;8.20;;;8.70;99.90;;;;;;10070738;29;20237;-79
2022/06/02 22:05:22;;;;;;;15.70;8.83;;;8.60;99.90;;;;;;10094094;29;20242;-83
2022/06/02 22:10:52;;;;;;;13.27;8.67;;;8.50;99.90;;;;;;10045914;29;20237;-82
2022/06/02 22:15:56;;;;;;;13.47;9.00;;;8.30;99.90;;;;;;10031644;29;20282;-79
2022/06/02 22:21:07;;;;;;;12.27;8.70;;;8.20;99.90;;;;;;10043050;29;20249;-80
2022/06/02 22:26:23;;;;;;;11.47;8.70;;;8.10;99.90;;;;;;10030200;29;21061;-79
2022/06/02 22:31:54;;;;;;;12.67;8.30;;;8.00;99.90;;;;;;10047968;29;20732;-79
2022/06/02 22:37:20;;;;;;;13.70;8.57;;;7.80;99.90;;;;;;10086466;29;20264;-80
2022/06/02 22:42:46;;;;;;;16.83;8.17;;;7.90;99.90;;;;;;10089468;29;21001;-79
2022/06/02 22:47:49;;;;;;;17.00;8.63;;;7.90;99.90;;;;;;10088314;29;20236;-80
2022/06/02 22:53:38;;;;;;;17.17;9.03;;;7.70;99.90;;;;;;10090816;29;20680;-79
2022/06/02 22:58:59;;;;;;;9.97;8.30;;;7.60;99.90;;;;;;10089230;29;20260;-79
2022/06/02 23:04:20;;;;;;;10.37;8.53;;;7.50;99.90;;;;;;10090313;29;20262;-79
2022/06/02 23:09:28;;;;;;;13.83;10.33;;;7.50;99.90;;;;;;10102083;29;20288;-79
2022/06/02 23:14:59;;;;;;;15.90;10.67;;;7.40;99.90;;;;;;10090818;29;20244;-79
2022/06/02 23:20:17;;;;;;;12.80;9.27;;;7.40;99.90;;;;;;10082438;29;20244;-80
2022/06/02 23:25:59;;;;;;;12.90;8.80;;;7.30;99.90;;;;;;10095238;29;20240;-79
2022/06/02 23:31:32;;;;;;;14.43;9.97;;;7.30;99.90;;;;;;10096485;29;20261;-80
2022/06/02 23:37:12;;;;;;;12.00;9.47;;;7.20;99.90;;;;;;10070744;29;20324;-79
2022/06/02 23:48:39;;;;;;;11.03;9.40;;;6.90;99.90;;;;;;10093355;29;20669;-79
2022/06/02 23:54:03;;;;;;;9.73;8.70;;;6.80;99.90;;;;;;10062941;29;20241;-80
2022/06/02 23:59:30;;;;;;;14.30;8.33;;;6.80;99.90;;;;;;10095518;29;20574;-80
